createdAt,value
2022-12-03T00:00:15.731Z,69.24
2022-12-03T00:02:43.925Z,69.55
2022-12-03T00:05:13.633Z,69.54
2022-12-03T00:07:41.718Z,69.46
2022-12-03T00:10:10.976Z,69.78
2022-12-03T00:12:39.047Z,69.47
2022-12-03T00:15:08.594Z,69.53
2022-12-03T00:17:36.827Z,69.63
2022-12-03T00:20:05.758Z,69.68
2022-12-03T00:22:35.226Z,69.80
2022-12-03T00:25:03.798Z,69.91
2022-12-03T00:27:31.845Z,70.04
2022-12-03T00:30:00.053Z,69.99
2022-12-03T00:32:28.451Z,69.93
2022-12-03T00:34:56.564Z,70.02
2022-12-03T00:37:24.678Z,70.08
2022-12-03T00:39:54.151Z,70.09
2022-12-03T00:42:22.218Z,70.02
2022-12-03T00:44:50.787Z,70.04
2022-12-03T00:47:19.204Z,69.91
2022-12-03T00:49:47.268Z,69.96
2022-12-03T00:52:15.254Z,70.23
2022-12-03T00:54:43.371Z,70.52
2022-12-03T00:57:12.880Z,70.07
2022-12-03T00:59:40.973Z,70.05
2022-12-03T01:02:09.085Z,69.97
2022-12-03T01:04:37.662Z,70.04
2022-12-03T01:07:05.935Z,70.06
2022-12-03T01:09:34.361Z,70.04
2022-12-03T01:12:02.464Z,70.10
2022-12-03T01:14:32.572Z,70.19
2022-12-03T01:17:00.669Z,70.10
2022-12-03T01:19:28.797Z,69.99
2022-12-03T01:21:56.998Z,70.04
2022-12-03T01:24:25.118Z,70.10
2022-12-03T01:26:53.213Z,70.10
2022-12-03T01:29:21.305Z,70.11
2022-12-03T01:32:08.069Z,70.13
2022-12-03T01:34:36.137Z,69.90
2022-12-03T01:37:04.303Z,69.94
2022-12-03T01:39:32.502Z,69.97
2022-12-03T01:42:00.856Z,69.82
2022-12-03T01:44:31.732Z,69.90
2022-12-03T01:47:03.778Z,69.83
2022-12-03T01:49:36.327Z,70.06
2022-12-03T01:52:04.704Z,69.96
2022-12-03T01:54:38.156Z,69.96
2022-12-03T01:57:07.962Z,69.69
2022-12-03T01:59:39.805Z,69.88
2022-12-03T02:02:14.433Z,69.77
2022-12-03T02:04:42.688Z,69.78
2022-12-03T02:07:21.487Z,69.97
2022-12-03T02:09:49.727Z,69.99
2022-12-03T02:12:20.697Z,69.90
2022-12-03T02:14:49.104Z,69.69
2022-12-03T02:17:19.002Z,69.79
2022-12-03T02:19:47.763Z,69.89
2022-12-03T02:22:28.660Z,69.88
2022-12-03T02:25:07.046Z,69.82
2022-12-03T02:27:35.406Z,69.90
2022-12-03T02:30:04.498Z,69.99
2022-12-03T02:32:32.570Z,69.95
2022-12-03T02:35:00.680Z,69.96
2022-12-03T02:37:31.996Z,69.92
2022-12-03T02:40:05.686Z,70.01
2022-12-03T02:42:37.210Z,69.91
2022-12-03T02:45:10.011Z,69.99
2022-12-03T02:47:42.915Z,70.09
2022-12-03T02:50:14.067Z,70.05
2022-12-03T02:52:44.339Z,70.05
2022-12-03T02:55:14.311Z,69.93
2022-12-03T02:57:46.278Z,70.06
2022-12-03T03:00:15.612Z,70.13
2022-12-03T03:02:44.868Z,69.98
2022-12-03T03:05:14.337Z,70.14
2022-12-03T03:07:43.449Z,69.99
2022-12-03T03:10:15.272Z,69.90
2022-12-03T03:12:45.013Z,69.89
2022-12-03T03:15:13.871Z,70.15
2022-12-03T03:17:43.414Z,69.96
2022-12-03T03:20:12.462Z,69.99
2022-12-03T03:22:42.254Z,69.91
2022-12-03T03:25:17.495Z,69.93
2022-12-03T03:27:47.165Z,69.81
2022-12-03T03:30:16.059Z,69.78
2022-12-03T03:32:44.482Z,69.78
2022-12-03T03:35:14.759Z,69.77
2022-12-03T03:37:43.348Z,69.77
2022-12-03T03:40:12.572Z,69.93
2022-12-03T03:42:40.836Z,69.83
2022-12-03T03:45:11.082Z,69.73
2022-12-03T03:47:39.307Z,69.89
2022-12-03T03:50:10.080Z,69.94
2022-12-03T03:52:40.879Z,69.83
2022-12-03T03:55:11.532Z,69.85
2022-12-03T03:57:40.547Z,69.84
2022-12-03T04:00:11.436Z,69.85
2022-12-03T04:02:39.686Z,69.80
2022-12-03T04:05:08.865Z,69.95
2022-12-03T04:07:37.026Z,70.14
2022-12-03T04:10:26.094Z,70.20
2022-12-03T04:12:55.901Z,70.02
2022-12-03T04:15:26.115Z,69.94
2022-12-03T04:18:08.464Z,70.14
2022-12-03T04:20:36.451Z,70.11
2022-12-03T04:23:04.136Z,70.03
2022-12-03T04:25:49.427Z,69.81
2022-12-03T04:28:35.132Z,69.90
2022-12-03T04:31:24.709Z,69.89
2022-12-03T04:34:10.381Z,69.82
2022-12-03T04:36:38.457Z,70.04
2022-12-03T04:39:06.714Z,70.09
2022-12-03T04:41:34.823Z,70.09
2022-12-03T04:44:20.494Z,70.23
2022-12-03T04:46:50.150Z,70.12
2022-12-03T04:49:18.243Z,70.06
2022-12-03T04:51:46.284Z,69.95
2022-12-03T04:54:14.445Z,69.97
2022-12-03T04:56:42.672Z,70.09
2022-12-03T04:59:15.733Z,69.87
2022-12-03T05:01:44.591Z,70.13
2022-12-03T05:04:14.991Z,69.91
2022-12-03T05:06:43.427Z,70.18
2022-12-03T05:09:12.462Z,70.03
2022-12-03T05:11:40.756Z,70.10
2022-12-03T05:14:09.578Z,70.09
2022-12-03T05:16:37.848Z,70.11
2022-12-03T05:19:07.762Z,69.94
2022-12-03T05:21:37.299Z,70.25
2022-12-03T05:24:06.350Z,70.06
2022-12-03T05:26:34.498Z,70.00
2022-12-03T05:29:02.695Z,70.29
2022-12-03T05:31:30.846Z,70.06
2022-12-03T05:33:58.972Z,69.99
2022-12-03T05:36:27.102Z,70.07
2022-12-03T05:38:56.533Z,70.11
2022-12-03T05:41:42.020Z,69.99
2022-12-03T05:44:10.050Z,69.87
2022-12-03T05:46:38.194Z,70.09
2022-12-03T05:49:06.335Z,69.73
2022-12-03T05:51:34.358Z,69.86
2022-12-03T05:54:03.908Z,69.98
2022-12-03T05:56:31.953Z,69.79
2022-12-03T05:59:00.419Z,69.99
2022-12-03T06:01:28.634Z,69.98
2022-12-03T06:03:56.683Z,69.77
2022-12-03T06:06:24.812Z,69.99
2022-12-03T06:08:52.893Z,69.69
2022-12-03T06:11:22.667Z,69.91
2022-12-03T06:13:50.828Z,70.24
2022-12-03T06:16:19.012Z,70.15
2022-12-03T06:18:47.273Z,69.78
2022-12-03T06:21:15.426Z,69.89
2022-12-03T06:23:44.878Z,69.83
2022-12-03T06:26:13.263Z,69.76
2022-12-03T06:28:46.323Z,69.81
2022-12-03T06:31:14.700Z,69.76
2022-12-03T06:33:42.818Z,69.95
2022-12-03T06:36:10.988Z,69.70
2022-12-03T06:38:39.212Z,69.94
2022-12-03T06:41:07.611Z,69.77
2022-12-03T06:43:35.669Z,70.04
2022-12-03T06:46:05.186Z,69.94
2022-12-03T06:48:33.345Z,70.00
2022-12-03T06:51:01.427Z,70.12
2022-12-03T06:53:29.450Z,69.83
2022-12-03T06:55:57.509Z,69.97
2022-12-03T06:58:25.908Z,69.80
2022-12-03T07:00:53.986Z,69.80
2022-12-03T07:03:23.923Z,69.68
2022-12-03T07:05:52.162Z,69.80
2022-12-03T07:08:20.318Z,69.75
2022-12-03T07:10:48.315Z,69.53
2022-12-03T07:13:16.559Z,69.50
2022-12-03T07:15:44.972Z,69.50
2022-12-03T07:18:13.431Z,69.44
2022-12-03T07:20:42.999Z,69.62
2022-12-03T07:23:11.017Z,69.67
2022-12-03T07:25:39.086Z,69.60
2022-12-03T07:28:07.070Z,70.02
2022-12-03T07:30:35.226Z,69.65
2022-12-03T07:33:03.275Z,69.87
2022-12-03T07:35:31.393Z,69.77
2022-12-03T07:38:00.804Z,69.73
2022-12-03T07:40:28.932Z,69.81
2022-12-03T07:42:57.074Z,69.74
2022-12-03T07:45:25.187Z,69.79
2022-12-03T07:47:53.430Z,69.72
2022-12-03T07:50:21.544Z,69.79
2022-12-03T07:52:49.592Z,69.90
2022-12-03T07:55:19.252Z,69.57
2022-12-03T07:57:47.342Z,69.79
2022-12-03T08:00:16.656Z,69.70
2022-12-03T08:02:44.741Z,69.94
2022-12-03T08:05:12.942Z,70.01
2022-12-03T08:07:40.986Z,69.96
2022-12-03T08:10:10.757Z,70.00
2022-12-03T08:12:43.689Z,70.19
2022-12-03T08:15:15.015Z,70.08
2022-12-03T08:17:44.125Z,69.99
2022-12-03T08:20:18.822Z,69.93
2022-12-03T08:22:49.140Z,69.89
2022-12-03T08:25:22.660Z,69.96
2022-12-03T08:27:53.380Z,70.22
2022-12-03T08:30:22.039Z,70.17
2022-12-03T08:32:50.176Z,70.36
2022-12-03T08:35:23.369Z,70.24
2022-12-03T08:37:57.850Z,70.07
2022-12-03T08:40:34.573Z,70.03
2022-12-03T08:43:13.955Z,70.02
2022-12-03T08:45:43.711Z,70.00
2022-12-03T08:48:26.508Z,70.27
2022-12-03T08:50:56.696Z,70.04
2022-12-03T08:53:32.647Z,70.42
2022-12-03T08:56:02.475Z,70.20
2022-12-03T08:58:43.091Z,70.12
2022-12-03T09:01:32.858Z,70.32
2022-12-03T09:04:17.044Z,70.12
2022-12-03T09:06:45.488Z,70.19
2022-12-03T09:09:13.648Z,70.17
2022-12-03T09:11:43.236Z,70.05
2022-12-03T09:14:18.326Z,70.12
2022-12-03T09:16:47.881Z,70.04
2022-12-03T09:19:16.701Z,70.19
2022-12-03T09:21:44.832Z,70.05
2022-12-03T09:24:13.421Z,70.21
2022-12-03T09:26:41.472Z,70.19
2022-12-03T09:29:12.429Z,70.01
2022-12-03T09:31:42.440Z,70.12
2022-12-03T09:34:11.082Z,70.24
2022-12-03T09:36:39.095Z,70.35
2022-12-03T09:39:07.697Z,70.22
2022-12-03T09:41:36.650Z,70.33
2022-12-03T09:44:10.889Z,70.51
2022-12-03T09:46:45.677Z,70.26
2022-12-03T09:49:17.640Z,70.52
2022-12-03T09:51:46.827Z,70.15
2022-12-03T09:54:24.894Z,70.20
2022-12-03T09:56:54.238Z,70.10
2022-12-03T09:59:24.232Z,70.11
2022-12-03T10:01:54.024Z,70.19
2022-12-03T10:04:22.721Z,70.42
2022-12-03T10:06:51.072Z,70.38
2022-12-03T10:09:25.036Z,70.04
2022-12-03T10:11:53.577Z,69.87
2022-12-03T10:14:21.861Z,69.67
2022-12-03T10:16:50.222Z,70.03
2022-12-03T10:19:24.462Z,70.22
2022-12-03T10:21:52.900Z,70.15
2022-12-03T10:24:27.004Z,70.65
2022-12-03T10:26:56.940Z,70.67
2022-12-03T10:29:33.286Z,70.48
2022-12-03T10:32:03.925Z,70.21
2022-12-03T10:34:35.629Z,70.36
2022-12-03T10:37:15.576Z,70.27
2022-12-03T10:39:59.390Z,70.40
2022-12-03T10:42:29.496Z,70.49
2022-12-03T10:45:24.834Z,70.32
2022-12-03T10:48:13.625Z,70.29
2022-12-03T10:50:52.079Z,70.51
2022-12-03T10:53:21.929Z,70.08
2022-12-03T10:55:52.361Z,70.18
2022-12-03T10:58:23.981Z,70.16
2022-12-03T11:00:54.230Z,70.43
2022-12-03T11:03:24.795Z,70.25
2022-12-03T11:05:56.213Z,70.31
2022-12-03T11:08:26.589Z,70.32
2022-12-03T11:10:59.668Z,70.50
2022-12-03T11:13:45.414Z,70.46
2022-12-03T11:16:15.084Z,70.72
2022-12-03T11:19:05.108Z,71.29
2022-12-03T11:21:34.460Z,71.51
2022-12-03T11:24:21.661Z,71.97
2022-12-03T11:27:18.849Z,71.92
2022-12-03T11:29:50.554Z,71.86
2022-12-03T11:33:00.488Z,72.20
2022-12-03T11:35:29.840Z,73.56
2022-12-03T11:38:41.474Z,74.27
2022-12-03T11:41:10.463Z,74.84
2022-12-03T11:44:14.822Z,76.80
2022-12-03T11:46:45.722Z,78.83
2022-12-03T11:49:40.331Z,77.74
2022-12-03T11:52:24.764Z,77.01
2022-12-03T11:54:58.260Z,76.63
2022-12-03T11:57:32.958Z,76.48
2022-12-03T12:00:04.587Z,76.56
2022-12-03T12:02:33.889Z,76.01
2022-12-03T12:05:23.377Z,76.36
2022-12-03T12:07:52.274Z,77.96
2022-12-03T12:10:46.342Z,77.69
2022-12-03T12:13:52.212Z,77.22
2022-12-03T12:16:55.172Z,76.83
2022-12-03T12:19:45.706Z,76.92
2022-12-03T12:22:29.988Z,76.92
2022-12-03T13:06:51.199Z,73.64
2022-12-03T13:09:22.044Z,73.58
2022-12-03T13:11:54.901Z,73.48
2022-12-03T13:14:24.624Z,73.46
2022-12-03T13:16:54.629Z,73.16
2022-12-03T13:19:24.922Z,73.28
2022-12-03T13:21:56.556Z,73.91
2022-12-03T13:24:32.334Z,75.85
2022-12-03T13:27:03.585Z,76.22
2022-12-03T13:29:33.287Z,75.98
2022-12-03T13:32:04.338Z,75.09
2022-12-03T13:34:34.696Z,74.19
2022-12-03T13:37:13.842Z,73.69
2022-12-03T13:39:47.044Z,73.60
2022-12-03T13:42:38.456Z,73.54
2022-12-03T13:45:31.079Z,73.68
2022-12-03T13:48:01.456Z,73.71
2022-12-03T13:50:34.858Z,73.55
2022-12-03T13:53:16.283Z,73.85
2022-12-03T13:55:46.464Z,73.80
2022-12-03T13:58:14.489Z,73.82
2022-12-03T14:00:42.710Z,73.75
2022-12-03T14:03:10.840Z,73.86
2022-12-03T14:05:39.035Z,73.84
2022-12-03T14:08:08.866Z,73.99
2022-12-03T14:10:37.140Z,74.06
2022-12-03T14:13:05.197Z,73.96
2022-12-03T14:15:33.191Z,74.12
2022-12-03T14:18:01.313Z,74.05
2022-12-03T14:20:29.475Z,74.15
2022-12-03T14:22:59.575Z,74.03
2022-12-03T14:25:29.230Z,74.02
2022-12-03T14:27:57.304Z,74.22
2022-12-03T14:30:26.953Z,74.22
2022-12-03T14:32:55.172Z,74.17
2022-12-03T14:35:23.199Z,73.94
2022-12-03T14:37:51.210Z,74.05
2022-12-03T14:40:21.749Z,74.11
2022-12-03T14:42:51.755Z,74.20
2022-12-03T14:45:20.808Z,74.18
2022-12-03T14:47:48.855Z,74.19
2022-12-03T14:50:17.135Z,74.15
2022-12-03T14:52:45.134Z,74.25
2022-12-03T14:55:13.280Z,74.20
2022-12-03T14:57:41.368Z,74.45
2022-12-03T15:00:12.439Z,74.34
2022-12-03T15:02:40.680Z,74.34
2022-12-03T15:05:09.103Z,74.08
2022-12-03T15:07:39.272Z,74.19
2022-12-03T15:10:09.024Z,74.19
2022-12-03T15:12:37.034Z,73.99
2022-12-03T15:15:05.545Z,73.99
2022-12-03T15:17:35.047Z,74.25
2022-12-03T15:20:03.887Z,73.91
2022-12-03T15:22:31.909Z,73.95
2022-12-03T15:24:59.937Z,73.95
2022-12-03T15:27:28.007Z,74.00
2022-12-03T15:29:56.377Z,73.86
2022-12-03T15:32:24.764Z,73.91
2022-12-03T15:34:54.243Z,74.14
2022-12-03T15:37:22.467Z,73.97
2022-12-03T15:39:51.135Z,73.99
2022-12-03T15:42:19.751Z,73.86
2022-12-03T15:44:47.874Z,73.92
2022-12-03T15:47:15.919Z,73.90
2022-12-03T15:49:44.075Z,73.80
2022-12-03T15:52:13.494Z,73.80
2022-12-03T15:54:41.579Z,73.79
2022-12-03T15:57:09.890Z,73.69
2022-12-03T15:59:38.131Z,73.68
2022-12-03T16:02:06.285Z,73.45
2022-12-03T16:04:34.403Z,73.25
2022-12-03T16:07:02.500Z,73.28
2022-12-03T16:09:32.303Z,73.19
2022-12-03T16:12:00.400Z,73.04
2022-12-03T16:14:28.541Z,72.94
2022-12-03T16:16:58.807Z,73.08
2022-12-03T16:19:26.902Z,73.30
2022-12-03T16:21:54.939Z,73.07
2022-12-03T16:24:22.963Z,72.79
2022-12-03T16:26:52.395Z,72.98
2022-12-03T16:29:20.632Z,73.14
2022-12-03T16:31:48.729Z,73.51
2022-12-03T16:34:16.953Z,73.24
2022-12-03T16:36:45.861Z,73.12
2022-12-03T16:39:14.198Z,72.91
2022-12-03T16:41:42.250Z,72.90
2022-12-03T16:44:30.489Z,73.02
2022-12-03T16:46:58.873Z,73.56
2022-12-03T16:49:26.966Z,73.94
2022-12-03T16:51:55.317Z,74.35
2022-12-03T16:54:23.352Z,74.43
2022-12-03T16:56:51.419Z,74.99
2022-12-03T16:59:21.224Z,74.99
2022-12-03T17:01:49.414Z,75.29
2022-12-03T17:04:17.666Z,75.02
2022-12-03T17:06:45.748Z,75.14
2022-12-03T17:09:13.860Z,74.91
2022-12-03T17:11:42.352Z,75.50
2022-12-03T17:14:10.734Z,75.49
2022-12-03T17:16:40.504Z,75.00
2022-12-03T17:19:08.599Z,74.99
2022-12-03T17:21:36.612Z,75.38
2022-12-03T17:24:04.858Z,75.65
2022-12-03T17:26:32.927Z,75.97
2022-12-03T17:29:01.152Z,75.55
2022-12-03T17:31:36.947Z,75.41
2022-12-03T17:34:09.560Z,74.75
2022-12-03T17:36:37.776Z,74.34
2022-12-03T17:39:05.925Z,74.20
2022-12-03T17:41:34.081Z,74.42
2022-12-03T17:44:07.285Z,74.30
2022-12-03T17:46:38.122Z,74.16
2022-12-03T17:49:06.626Z,74.50
2022-12-03T17:51:36.026Z,74.21
2022-12-03T17:54:04.519Z,75.09
2022-12-03T17:56:32.872Z,76.55
2022-12-03T17:59:01.668Z,75.27
2022-12-03T18:01:30.240Z,76.07
2022-12-03T18:03:58.733Z,76.07
2022-12-03T18:06:27.395Z,76.37
2022-12-03T18:08:57.773Z,76.06
2022-12-03T18:11:26.050Z,76.95
2022-12-03T18:13:54.252Z,77.19
2022-12-03T18:16:22.541Z,76.58
2022-12-03T18:18:56.197Z,77.12
2022-12-03T18:21:25.330Z,77.96
2022-12-03T18:23:54.228Z,77.71
2022-12-03T18:26:24.073Z,78.11
2022-12-03T18:28:52.540Z,78.51
2022-12-03T18:31:22.626Z,78.66
2022-12-03T18:33:50.948Z,79.01
2022-12-03T18:36:21.662Z,78.94
2022-12-03T18:38:52.169Z,78.73
2022-12-03T18:41:20.902Z,79.04
2022-12-03T18:43:50.978Z,79.01
2022-12-03T18:49:09.881Z,78.72
2022-12-03T18:51:38.305Z,78.81
2022-12-03T18:54:12.491Z,78.47
2022-12-03T18:56:41.037Z,78.31
2022-12-03T18:59:11.257Z,78.29
2022-12-03T19:01:39.449Z,78.34
2022-12-03T19:04:07.527Z,78.27
2022-12-03T19:06:35.586Z,78.15
2022-12-03T19:09:03.764Z,78.09
2022-12-03T19:11:34.043Z,77.91
2022-12-03T19:14:03.062Z,77.95
2022-12-03T19:16:32.981Z,77.79
2022-12-03T19:19:01.234Z,77.94
2022-12-03T19:21:33.653Z,77.65
2022-12-03T19:24:24.671Z,77.67
2022-12-03T19:26:54.474Z,77.64
2022-12-03T19:29:23.233Z,77.63
2022-12-03T19:31:53.469Z,77.43
2022-12-03T19:34:21.847Z,77.30
2022-12-03T19:36:49.848Z,77.25
2022-12-03T19:39:18.015Z,77.26
2022-12-03T19:41:46.239Z,77.17
2022-12-03T19:44:15.589Z,77.06
2022-12-03T19:46:43.725Z,76.97
2022-12-03T19:49:13.492Z,77.04
2022-12-03T19:51:41.888Z,76.82
2022-12-03T19:54:12.538Z,76.87
2022-12-03T19:56:40.870Z,76.85
2022-12-03T19:59:09.491Z,76.77
2022-12-03T20:01:40.338Z,76.73
2022-12-03T20:04:09.220Z,76.79
2022-12-03T20:06:39.062Z,76.53
2022-12-03T20:09:09.306Z,76.65
2022-12-03T20:11:37.382Z,76.46
2022-12-03T20:14:07.969Z,76.46
2022-12-03T20:16:36.489Z,76.37
2022-12-03T20:19:06.397Z,76.37
2022-12-03T20:21:36.664Z,76.40
2022-12-03T20:24:07.731Z,76.23
2022-12-03T20:26:35.769Z,76.34
2022-12-03T20:29:03.781Z,76.31
2022-12-03T20:31:33.017Z,76.17
2022-12-03T20:34:04.583Z,76.26
2022-12-03T20:36:33.946Z,76.30
2022-12-03T20:39:03.841Z,76.23
2022-12-03T20:41:35.718Z,76.27
2022-12-03T20:44:05.991Z,76.07
2022-12-03T20:46:34.227Z,76.22
2022-12-03T20:49:02.410Z,76.21
2022-12-03T20:51:31.850Z,76.06
2022-12-03T20:54:01.691Z,76.05
2022-12-03T20:56:32.311Z,76.10
2022-12-03T20:59:06.050Z,75.80
2022-12-03T21:01:36.022Z,76.12
2022-12-03T21:04:05.398Z,76.11
2022-12-03T21:06:35.928Z,75.86
2022-12-03T21:09:05.977Z,75.65
2022-12-03T21:11:35.942Z,75.61
2022-12-03T21:14:05.681Z,75.83
2022-12-03T21:17:06.101Z,75.86
2022-12-03T21:19:23.710Z,75.70
2022-12-03T21:21:51.757Z,75.78
2022-12-03T21:24:19.838Z,75.77
2022-12-03T21:26:48.813Z,75.42
2022-12-03T21:29:18.426Z,75.69
2022-12-03T21:31:46.693Z,75.60
2022-12-03T21:34:14.826Z,75.73
2022-12-03T21:36:43.027Z,75.76
2022-12-03T21:39:11.142Z,75.82
2022-12-03T21:41:39.202Z,75.68
2022-12-03T21:44:07.343Z,75.85
2022-12-03T21:47:10.048Z,75.75
2022-12-03T21:49:24.902Z,75.51
2022-12-03T21:51:53.106Z,75.62
2022-12-03T21:54:21.268Z,75.67
2022-12-03T21:56:49.384Z,75.62
2022-12-03T21:59:17.550Z,75.62
2022-12-03T22:01:47.580Z,75.69
2022-12-03T22:04:15.821Z,75.66
2022-12-03T22:06:44.215Z,75.55
2022-12-03T22:09:12.476Z,75.42
2022-12-03T22:11:40.481Z,75.45
2022-12-03T22:14:09.889Z,75.34
2022-12-03T22:16:38.080Z,75.29
2022-12-03T22:19:07.604Z,75.13
2022-12-03T22:21:35.690Z,75.29
2022-12-03T22:24:03.745Z,75.34
2022-12-03T22:26:31.794Z,75.27
2022-12-03T22:29:00.792Z,75.41
2022-12-03T22:31:29.299Z,75.22
2022-12-03T22:33:57.801Z,75.28
2022-12-03T22:36:27.197Z,75.20
2022-12-03T22:38:55.323Z,75.14
2022-12-03T22:41:23.792Z,75.08
2022-12-03T22:43:51.875Z,75.21
2022-12-03T22:46:19.987Z,74.97
2022-12-03T22:48:48.527Z,74.90
2022-12-03T22:51:19.214Z,74.91
2022-12-03T22:53:49.582Z,75.00
2022-12-03T22:56:17.609Z,75.04
2022-12-03T22:58:45.792Z,74.89
2022-12-03T23:01:22.777Z,74.90
2022-12-03T23:03:50.963Z,74.95
2022-12-03T23:06:19.882Z,74.74
2022-12-03T23:08:49.350Z,75.03
2022-12-03T23:11:18.078Z,74.78
2022-12-03T23:13:46.173Z,74.95
2022-12-03T23:16:17.231Z,74.75
2022-12-03T23:18:45.626Z,74.79
2022-12-03T23:21:17.771Z,74.73
2022-12-03T23:23:46.118Z,74.90
2022-12-03T23:26:16.337Z,74.84
2022-12-03T23:28:45.993Z,74.91
2022-12-03T23:31:18.166Z,74.99
2022-12-03T23:33:47.303Z,74.86
2022-12-03T23:36:15.638Z,74.96
2022-12-03T23:38:43.718Z,74.97
2022-12-03T23:41:14.637Z,74.96
2022-12-03T23:43:44.162Z,74.97
2022-12-03T23:46:14.827Z,74.85
2022-12-03T23:48:43.611Z,74.86
2022-12-03T23:51:13.140Z,74.81
2022-12-03T23:53:41.749Z,74.84
2022-12-03T23:56:11.952Z,74.94
2022-12-03T23:58:40.537Z,74.93
